KMQW/MQW METAR and TAF weather

Enter ICAO airport designator
Station Type Date Time Source
KMQW METAR 2024/07/23 16:35 UTC NOAA

KMQW 231635Z AUTO 21005KT 10SM SCT036 32/23 A3014 RMK AO2 T03170232


Station Type Date Time Source
KMQW Decoded METAR 2024/07/23 16:35 UTC NOAA

Station name not available
Jul 23, 2024 - 12:35 PM EDT / 2024.07.23 1635 UTC
Wind: from the SSW (210 degrees) at 6 MPH (5 KT):0
Visibility: 10 mile(s):0
Sky conditions: partly cloudy
Temperature: 89.1 F (31.7 C)
Heat index: 97.5 F (36.4 C):1
Dew Point: 73.8 F (23.2 C)
Relative Humidity: 60%
Pressure (altimeter): 30.14 in. Hg (1020 hPa)
ob: KMQW 231635Z AUTO 21005KT 10SM SCT036 32/23 A3014 RMK AO2 T03170232
cycle: 16

Station Type Date Time Source
KMQW TAF UTC NOAA

Error!

Example: see airport list